Porter, Indiana
Current Conditions -  °F | °C
As of 12:56 AM on Sunday 21 Dec 2014 (Local Time) from KVPZ Reporting Station
Haze Haze  
Wind Chill: 25°   Ceiling: 4100
Heat Index: 30°   Visibility: 6mi
Dew Point: 26°   Wind: 5mph
Humidity: 85%   Direction: 170°S
Pressure: 30.26"   Gusts: NA
Location:  41.6139°N, 87.0454°W
Report Text: KVPZ 210656Z AUTO 17004KT 6SM BR BKN041 OVC055 M01/M03 A3026 RMK AO2 SLP257 T10111033 TSNO
Loading
Personal Weather Stations






























Interactive Weather Map New forecast layout! Learn more

10-Day Weather Forecast

Advertisements
Track Severe Weather on mobile